OJAM/ADJ METAR and TAF weather

Enter ICAO airport designator
Station Type Date Time Source
OJAM METAR 2022/06/25 22:00 UTC NOAA

OJAM 252200Z 30011KT 8000 NSC 19/13 Q1011 NOSIG


Station Type Date Time Source
OJAM Decoded METAR 2022/06/25 22:00 UTC NOAA

Amman Airport, Jordan (OJAM) 31-59N 035-59E 768M
Jun 25, 2022 - 06:00 PM EDT / 2022.06.25 2200 UTC
Wind: from the WNW (300 degrees) at 13 MPH (11 KT):0
Visibility: 4 mile(s):0
Temperature: 66 F (19 C)
Dew Point: 55 F (13 C)
Relative Humidity: 68%
Pressure (altimeter): 29.85 in. Hg (1011 hPa)
ob: OJAM 252200Z 30011KT 8000 NSC 19/13 Q1011 NOSIG
cycle: 22

Station Type Date Time Source
OJAM TAF 2022/06/25 18:15 UTC NOAA

TAF OJAM 251700Z 2518/2624 29010KT 5000 HZ FEW030 PROB40 2602/2606 2000 HZ
TEMPO 2609/2617 29018KT 4000 BLDU

Example: see airport list